Lipton, Canada
Current Conditions -  °F | °C
As of 7:00 PM on Tuesday 21 Oct 2014 (Local Time) from CYQR Reporting Station
Broken Clouds Broken Clouds  
Wind Chill: 59°   Ceiling: 28000
Heat Index: 59°   Visibility: 15mi
Dew Point: 45°   Wind: 14mph
Humidity: 59%   Direction: 130°SE
Pressure: 29.57"   Gusts: 22mph
Location:  50.9°N, 103.85°W
Report Text: CYQR 220100Z 13012G19KT 15SM SCT140 BKN280 15/07 A2957 RMK AC3CI2 SLP027 DENSITY ALT 2700FT
Loading
Personal Weather Stations






























Interactive Weather Map
Tropical Storm Tracking
New forecast layout! Learn more

10-Day Weather Forecast

Advertisements
Track Severe Weather on mobile